Data for 09/18/2014

Time Sea-Level Adjusted Pressure Absolute Pressure Temperature Relative Humidity Dew Point   
(mb) (inHg) (mb) (inHg) (C) (F) (%) (C) (F)
00:05 1014 29.94 844 24.92 17.7 63.8 42 4.8 40.7
00:10 1014 29.94 844 24.92 17.8 64 42 4.9 40.8
00:15 1014 29.94 844 24.92 17.8 64.1 42 4.9 40.9
00:20 1014 29.94 844 24.92 17.9 64.3 41 4.7 40.5
00:25 1014 29.94 844 24.92 18 64.3 43 5.3 41.5
00:30 1014 29.94 844 24.92 17.6 63.7 44 5.2 41.4
00:35 1014 29.94 843 24.89 17.6 63.7 43 4.9 40.9
00:40 1014 29.94 843 24.89 17.5 63.6 43 4.9 40.9
00:45 1014 29.94 843 24.89 17.8 64.1 41 4.7 40.4
00:50 1014 29.94 843 24.89 17.7 63.9 42 4.9 40.8
00:55 1014 29.94 843 24.89 17.8 64.1 41 4.6 40.3
01:00 1014 29.94 843 24.89 17.9 64.2 41 4.5 40.1
01:05 1014 29.94 843 24.89 18 64.3 41 4.6 40.2
01:10 1014 29.94 843 24.89 17.9 64.2 41 4.8 40.6
01:15 1014 29.94 843 24.89 17.8 64 42 4.7 40.5
01:20 1014 29.94 843 24.89 17.6 63.8 42 4.8 40.6
01:25 1014 29.94 843 24.89 17.4 63.2 44 5.1 41.2
01:30 1014 29.94 843 24.89 17.1 62.7 44 4.9 40.9
01:35 1014 29.94 843 24.89 16.9 62.5 44 4.8 40.6
01:40 1014 29.94 843 24.89 16.8 62.3 45 4.9 40.9
01:45 1014 29.94 843 24.89 16.6 61.9 46 5 40.9
01:50 1014 29.94 843 24.89 16.3 61.4 46 4.8 40.7
01:55 1014 29.94 843 24.89 16.3 61.3 46 4.8 40.6
02:00 1014 29.94 843 24.89 16.3 61.4 45 4.6 40.2
02:05 1014 29.94 843 24.89 16.6 62 44 4.6 40.3
02:10 1014 29.94 843 24.89 16.9 62.3 44 4.7 40.4
02:15 1014 29.94 843 24.89 16.8 62.2 44 4.5 40.1
02:20 1014 29.94 843 24.89 16.7 62.1 44 4.7 40.4
02:25 1014 29.94 843 24.89 16.5 61.6 46 5.1 41.1
02:30 1014 29.94 843 24.89 16.1 61 47 4.9 40.8
02:35 1014 29.94 843 24.89 15.9 60.7 51 6 42.8
02:40 1014 29.94 843 24.89 15.5 59.9 50 5.1 41.2
02:45 1014 29.94 843 24.89 15.4 59.7 50 5.2 41.3
02:50 1014 29.94 843 24.89 15.3 59.6 49 4.9 40.8
02:55 1014 29.94 843 24.89 15.4 59.7 49 4.8 40.6
03:00 1014 29.94 843 24.89 15.6 60.1 49 5 41
03:05 1014 29.94 843 24.89 15.5 59.8 48 4.7 40.4
03:10 1013 29.91 843 24.89 15.6 60 48 4.7 40.4
03:15 1013 29.91 843 24.89 15.7 60.3 47 4.6 40.4
03:20 1014 29.94 843 24.89 15.8 60.4 47 4.6 40.3
03:25 1014 29.94 843 24.89 15.9 60.7 47 4.7 40.5
03:30 1014 29.94 843 24.89 15.7 60.3 49 5.1 41.1
03:35 1014 29.94 843 24.89 15.6 60.1 50 5.4 41.7
03:40 1014 29.94 843 24.89 15.4 59.8 50 5.1 41.2
03:45 1014 29.94 843 24.89 15.4 59.7 50 5 41
03:50 1014 29.94 843 24.89 15.6 60.1 47 4.5 40.1
03:55 1015 29.97 844 24.92 15.8 60.4 49 5.3 41.5
04:00 1015 29.97 844 24.92 15.6 60.1 47 4.3 39.8
04:05 1015 29.97 844 24.92 16 60.7 49 5.3 41.6
04:10 1015 29.97 844 24.92 15.4 59.6 56 6.8 44.2
04:15 1014 29.94 844 24.92 14.3 57.7 55 5.5 41.9
04:20 1014 29.94 844 24.92 14.8 58.6 56 6.2 43.2
04:25 1014 29.94 844 24.92 14.6 58.2 57 6.2 43.2
04:30 1014 29.94 843 24.89 14.5 58 60 6.8 44.2
04:35 1014 29.94 843 24.89 14.1 57.4 61 6.8 44.2
04:40 1014 29.94 843 24.89 14.4 57.8 58 6.4 43.5
04:45 1014 29.94 843 24.89 14.8 58.6 55 5.8 42.4
04:50 1014 29.94 843 24.89 15.5 59.8 53 6 42.8
04:55 1013 29.91 842 24.86 15.8 60.4 53 6.3 43.3
05:00 1013 29.91 842 24.86 15.9 60.6 53 6.3 43.3
05:05 1013 29.91 842 24.86 16.1 61 50 5.9 42.5
05:10 1013 29.91 842 24.86 16.8 62.2 49 6 42.8
05:15 1013 29.91 842 24.86 17.2 62.9 46 5.6 42.2
05:20 1013 29.91 842 24.86 17.6 63.7 44 5.4 41.8
05:25 1013 29.91 842 24.86 18 64.4 44 5.8 42.5
05:30 1013 29.91 842 24.86 18 64.4 44 5.7 42.2
05:35 1013 29.91 843 24.89 18.1 64.5 49 7.2 45
05:40 1013 29.91 843 24.89 17.6 63.7 51 7.4 45.3
05:45 1013 29.91 843 24.89 17.8 64 50 7.4 45.3
05:50 1014 29.94 843 24.89 17.7 63.9 52 7.9 46.3
05:55 1014 29.94 843 24.89 17.6 63.6 55 8.5 47.4
06:00 1014 29.94 843 24.89 17.3 63.1 56 8.7 47.6
06:05 1014 29.94 843 24.89 17.1 62.7 58 8.8 47.9
06:10 1014 29.94 844 24.92 16.8 62.2 59 8.9 48
06:15 1015 29.97 844 24.92 16.5 61.8 61 9.1 48.4
06:20 1015 29.97 844 24.92 16.4 61.5 61 9 48.2
06:25 1015 29.97 844 24.92 16.3 61.4 61 8.9 48
06:30 1015 29.97 844 24.92 16.4 61.6 63 9.4 49
06:35 1015 29.97 844 24.92 16.1 60.9 64 9.4 49
06:40 1015 29.97 845 24.95 16 60.8 65 9.4 48.9
06:45 1016 30 845 24.95 15.9 60.6 70 10.5 50.9
06:50 1016 30 845 24.95 15.5 59.9 74 11 51.8
06:55 1016 30 845 24.95 15.2 59.4 78 11.4 52.5
07:00 1016 30 845 24.95 14.9 58.8 79 11.3 52.3
07:05 1017 30.03 846 24.98 14.6 58.3 82 11.5 52.8
07:10 1017 30.03 846 24.98 14.4 57.8 83 11.5 52.7
07:15 1017 30.03 846 24.98 14.1 57.4 82 11 51.9
07:20 1017 30.03 846 24.98 13.7 56.6 84 11 51.8
07:25 1017 30.03 846 24.98 13.2 55.7 84 10.5 50.9
07:30 1017 30.03 846 24.98 12.8 55 86 10.5 50.8
07:35 1017 30.03 846 24.98 12.6 54.7 85 10.2 50.3
07:40 1017 30.03 846 24.98 12.7 54.8 84 10.1 50.2
07:45 1017 30.03 846 24.98 12.8 55 84 10.2 50.3
07:50 1017 30.03 846 24.98 12.9 55.2 83 10.2 50.3
07:55 1017 30.03 846 24.98 13 55.4 86 10.7 51.3
08:00 1017 30.03 846 24.98 12.9 55.1 87 10.7 51.3
08:05 1017 30.03 846 24.98 12.7 54.8 88 10.8 51.4
08:10 1017 30.03 846 24.98 12.5 54.5 88 10.6 51.2
08:15 1017 30.03 846 24.98 12.7 54.8 88 10.8 51.5
08:20 1017 30.03 846 24.98 12.7 54.8 88 10.8 51.4
08:25 1017 30.03 846 24.98 12.6 54.8 88 10.6 51.2
08:30 1017 30.03 846 24.98 12.8 55 87 10.7 51.2
08:35 1017 30.03 846 24.98 12.9 55.1 88 10.9 51.6
08:40 1017 30.03 846 24.98 12.8 55.1 89 11 51.8
08:45 1016 30 845 24.95 12.8 55 90 11.2 52.1
08:50 1016 30 845 24.95 12.7 54.9 90 11.2 52.2
08:55 1016 30 845 24.95 12.8 55 91 11.3 52.3
09:00 1016 30 845 24.95 12.9 55.2 91 11.4 52.5
09:05 1016 30 845 24.95 13.1 55.6 89 11.3 52.4
09:10 1016 30 845 24.95 13.3 55.9 88 11.4 52.6
09:15 1015 29.97 844 24.92 13.4 56.1 88 11.5 52.7
09:20 1015 29.97 844 24.92 13.5 56.3 88 11.6 52.8
09:25 1015 29.97 844 24.92 13.6 56.6 87 11.5 52.7
09:30 1015 29.97 844 24.92 13.8 56.8 86 11.6 52.8
09:35 1015 29.97 844 24.92 14 57.1 84 11.4 52.5
09:40 1015 29.97 844 24.92 14.1 57.4 84 11.5 52.8
09:45 1015 29.97 844 24.92 14.4 57.8 84 11.7 53
09:50 1015 29.97 844 24.92 14.7 58.5 83 11.9 53.4
09:55 1015 29.97 844 24.92 15.3 59.6 79 11.7 53.1
10:00 1015 29.97 844 24.92 15.8 60.4 77 11.7 53.1
10:05 1015 29.97 844 24.92 16.3 61.4 75 11.9 53.3
10:10 1015 29.97 844 24.92 16.9 62.4 72 11.8 53.3
10:15 1015 29.97 844 24.92 17.6 63.6 70 12.1 53.8
10:20 1015 29.97 844 24.92 17.9 64.3 67 11.8 53.2
10:25 1015 29.97 844 24.92 18.3 65 66 12.1 53.7
10:30 1015 29.97 844 24.92 18.6 65.5 66 12.2 54
10:35 1015 29.97 844 24.92 18.9 66 65 12.3 54.1
10:40 1015 29.97 844 24.92 18.1 64.6 70 12.6 54.7
10:45 1015 29.97 844 24.92 17.9 64.2 68 11.9 53.4
10:50 1015 29.97 844 24.92 17.6 63.6 69 11.8 53.3
10:55 1015 29.97 844 24.92 17.5 63.4 70 12 53.6
11:00 1015 29.97 844 24.92 17.6 63.7 70 12.1 53.8
11:05 1015 29.97 844 24.92 18.1 64.7 62 10.9 51.7
11:10 1015 29.97 844 24.92 18.6 65.4 61 10.9 51.7
11:15 1015 29.97 844 24.92 18.4 65.1 63 11.4 52.5
11:20 1015 29.97 844 24.92 18.5 65.3 63 11.4 52.5
11:25 1015 29.97 844 24.92 18.2 64.8 67 12.1 53.8
11:30 1015 29.97 844 24.92 18.3 64.9 67 12.1 53.9
11:35 1015 29.97 844 24.92 18.2 64.7 64 11.4 52.5
11:40 1015 29.97 844 24.92 18 64.3 65 11.5 52.7
11:45 1015 29.97 844 24.92 18.1 64.5 63 11 51.7
11:50 1015 29.97 844 24.92 18.3 64.9 63 11.2 52.1
11:55 1015 29.97 844 24.92 18.5 65.3 62 11.1 51.9
12:00 1015 29.97 844 24.92 19.5 67 59 11.3 52.4
12:05 1015 29.97 844 24.92 21.1 69.9 52 11.1 52
12:10 1015 29.97 844 24.92 20.2 68.4 57 11.6 52.9
12:15 1015 29.97 844 24.92 20.1 68.1 58 11.8 53.2
12:20 1015 29.97 844 24.92 20 68.1 60 12.1 53.8
12:25 1015 29.97 844 24.92 20.1 68.2 59 12 53.5
12:30 1015 29.97 844 24.92 20.5 68.9 56 11.4 52.6
12:35 1015 29.97 844 24.92 20.8 69.4 56 11.7 53.1
12:40 1015 29.97 844 24.92 20 68 56 11.1 51.9
12:45 1015 29.97 844 24.92 20.6 69.1 54 11 51.8
12:50 1015 29.97 844 24.92 21.2 70.2 53 11.6 52.8
12:55 1015 29.97 844 24.92 21.6 70.9 57 13 55.4
13:00 1014 29.94 844 24.92 20.5 68.9 53 10.6 51.1
13:05 1014 29.94 843 24.89 20.2 68.4 56 11.3 52.3
13:10 1014 29.94 844 24.92 20.9 69.7 54 11.5 52.7
13:15 1015 29.97 844 24.92 20.9 69.6 57 12.1 53.8
13:20 1014 29.94 844 24.92 20.2 68.3 56 11.2 52.1
13:25 1014 29.94 843 24.89 20.2 68.4 56 11.4 52.5
13:30 1014 29.94 843 24.89 20.4 68.7 55 11.2 52.2
13:35 1014 29.94 843 24.89 20.4 68.8 56 11.5 52.7
13:40 1014 29.94 844 24.92 20 68 63 12.7 54.9
13:45 1014 29.94 844 24.92 19.2 66.6 67 13.2 55.7
13:50 1014 29.94 843 24.89 18.7 65.6 69 13 55.4
13:55 1014 29.94 843 24.89 17.9 64.1 74 13.3 56
14:00 1014 29.94 843 24.89 17.6 63.7 76 13.3 55.9
14:05 1014 29.94 843 24.89 17.6 63.7 76 13.3 56
14:10 1014 29.94 843 24.89 17.6 63.7 74 12.9 55.3
14:15 1014 29.94 843 24.89 17.5 63.5 74 13 55.3
14:20 1014 29.94 843 24.89 17.5 63.5 76 13.3 56
14:25 1014 29.94 843 24.89 17.7 63.8 74 13.1 55.5
14:30 1014 29.94 843 24.89 17.4 63.4 72 12.3 54.2
14:35 1014 29.94 843 24.89 17.4 63.3 71 12.2 53.9
14:40 1014 29.94 843 24.89 17.6 63.6 70 12 53.6
14:45 1014 29.94 843 24.89 17.7 63.9 72 12.7 54.9
14:50 1014 29.94 843 24.89 17.7 63.9 71 12.6 54.6
14:55 1014 29.94 843 24.89 17.6 63.6 71 12.3 54.1
15:00 1014 29.94 843 24.89 17.4 63.3 73 12.6 54.7
15:05 1014 29.94 843 24.89 17.2 63 76 13 55.5
15:10 1014 29.94 843 24.89 17.1 62.8 76 12.9 55.3
15:15 1014 29.94 843 24.89 17.1 62.9 74 12.6 54.7
15:20 1014 29.94 843 24.89 17.4 63.4 73 12.6 54.7
15:25 1014 29.94 843 24.89 17.6 63.8 72 12.6 54.8
15:30 1014 29.94 843 24.89 17.6 63.8 74 13 55.5
15:35 1014 29.94 843 24.89 17.8 64 71 12.6 54.6
15:40 1014 29.94 843 24.89 18.1 64.6 68 12.3 54.1
15:45 1014 29.94 843 24.89 18.4 65.1 71 13 55.5
15:50 1014 29.94 843 24.89 18.4 65.1 73 13.6 56.5
15:55 1014 29.94 843 24.89 18.3 64.9 74 13.6 56.5
16:00 1014 29.94 843 24.89 17.8 64 76 13.6 56.5
16:05 1014 29.94 843 24.89 17.5 63.5 78 13.7 56.6
16:10 1014 29.94 843 24.89 17.2 63 80 13.8 56.8
16:15 1013 29.91 843 24.89 17.2 63 81 14 57.2
16:20 1013 29.91 842 24.86 17.2 62.9 79 13.5 56.4
16:25 1013 29.91 842 24.86 17.8 64 76 13.6 56.4
16:30 1013 29.91 842 24.86 18.1 64.5 73 13.2 55.7
16:35 1013 29.91 842 24.86 18.3 64.9 72 13.2 55.7
16:40 1013 29.91 842 24.86 18.6 65.4 69 12.9 55.3
16:45 1013 29.91 842 24.86 18.5 65.2 70 13 55.4
16:50 1013 29.91 842 24.86 18.2 64.8 70 12.8 55.1
16:55 1013 29.91 842 24.86 18.1 64.6 71 12.8 55
17:00 1013 29.91 842 24.86 18.2 64.7 70 12.7 54.8
17:05 1013 29.91 842 24.86 18.3 65 69 12.6 54.7
17:10 1013 29.91 843 24.89 18.2 64.8 68 12.3 54.1
17:15 1013 29.91 842 24.86 18.3 65 66 11.9 53.4
17:20 1013 29.91 842 24.86 18.6 65.4 63 11.4 52.5
17:25 1013 29.91 842 24.86 18.8 65.9 61 11.3 52.4
17:30 1013 29.91 842 24.86 19 66.1 61 11.5 52.7
17:35 1013 29.91 842 24.86 19 66.2 60 11.3 52.3
17:40 1013 29.91 842 24.86 18.9 66 64 12.1 53.7
17:45 1013 29.91 842 24.86 18.8 65.8 63 11.6 52.8
17:50 1013 29.91 842 24.86 18.7 65.6 63 11.5 52.7
17:55 1013 29.91 842 24.86 18.6 65.5 66 12.2 53.9
18:00 1013 29.91 842 24.86 18.5 65.3 67 12.4 54.3
18:05 1013 29.91 842 24.86 18.3 64.9 69 12.5 54.5
18:10 1013 29.91 842 24.86 18 64.5 70 12.6 54.7
18:15 1013 29.91 842 24.86 17.7 63.8 70 12.2 53.9
18:20 1013 29.91 842 24.86 17.4 63.4 70 11.9 53.4
18:25 1013 29.91 842 24.86 17.4 63.3 69 11.7 53.1
18:30 1013 29.91 842 24.86 17.3 63.2 71 12.1 53.8
18:35 1013 29.91 842 24.86 17.3 63.1 73 12.5 54.5
18:40 1013 29.91 842 24.86 17.1 62.7 73 12.2 54
18:45 1013 29.91 842 24.86 16.7 62.1 74 12.1 53.8
18:50 1013 29.91 842 24.86 16.6 61.8 74 11.9 53.4
18:55 1013 29.91 842 24.86 16.3 61.3 71 11.1 52
19:00 1013 29.91 842 24.86 16.1 60.9 71 10.8 51.4
19:05 1013 29.91 842 24.86 15.8 60.5 70 10.3 50.6
19:10 1013 29.91 842 24.86 15.7 60.2 69 10.1 50.1
19:15 1013 29.91 842 24.86 15.5 60 69 9.9 49.9
19:20 1013 29.91 842 24.86 15.4 59.8 72 10.4 50.7
19:25 1013 29.91 843 24.89 15.2 59.4 71 10 49.9
19:30 1013 29.91 843 24.89 15.2 59.4 69 9.7 49.4
19:35 1013 29.91 843 24.89 15.1 59.2 71 9.9 49.9
19:40 1014 29.94 843 24.89 14.9 58.9 70 9.5 49.2
19:45 1014 29.94 843 24.89 15 59 68 9.3 48.7
19:50 1014 29.94 843 24.89 15 58.9 68 9.2 48.6
19:55 1014 29.94 843 24.89 14.8 58.6 68 9.1 48.4
20:00 1014 29.94 843 24.89 14.8 58.7 69 9.2 48.6
20:05 1014 29.94 843 24.89 14.7 58.4 69 9.2 48.6
20:10 1014 29.94 843 24.89 14.6 58.3 70 9.3 48.7
20:15 1014 29.94 843 24.89 14.5 58.1 72 9.5 49.2
20:20 1014 29.94 843 24.89 14.4 57.9 71 9.3 48.8
20:25 1014 29.94 843 24.89 14 57.1 71 8.9 48.1
20:30 1014 29.94 843 24.89 14.1 57.4 71 8.9 48.1
20:35 1014 29.94 843 24.89 14.1 57.3 72 9.1 48.3
20:40 1014 29.94 843 24.89 14.2 57.5 70 8.8 47.9
20:45 1014 29.94 843 24.89 14.5 58.1 68 8.9 47.9
20:50 1014 29.94 843 24.89 14.6 58.2 69 9.1 48.3
20:55 1014 29.94 843 24.89 14.3 57.8 71 9.1 48.3
21:00 1014 29.94 843 24.89 14.1 57.4 71 8.9 48
21:05 1014 29.94 843 24.89 14.1 57.4 71 9 48.1
21:10 1014 29.94 843 24.89 14.1 57.5 71 8.9 48.1
21:15 1014 29.94 843 24.89 14.3 57.7 70 8.9 48
21:20 1014 29.94 843 24.89 14.5 58.2 68 8.8 47.9
21:25 1014 29.94 843 24.89 14.6 58.3 68 8.9 47.9
21:30 1014 29.94 843 24.89 14.6 58.2 67 8.7 47.6
21:35 1014 29.94 843 24.89 14.6 58.2 67 8.6 47.5
21:40 1014 29.94 843 24.89 14.7 58.5 66 8.4 47.1
21:45 1014 29.94 843 24.89 14.6 58.2 66 8.3 46.9
21:50 1015 29.97 844 24.92 14.4 57.8 67 8.3 47
21:55 1015 29.97 844 24.92 14.4 58 66 8.3 46.9
22:00 1015 29.97 844 24.92 14.3 57.7 71 9.2 48.6
22:05 1014 29.94 844 24.92 13.8 56.8 70 8.5 47.3
22:10 1015 29.97 844 24.92 13.8 56.8 70 8.5 47.3
22:15 1015 29.97 844 24.92 13.8 56.9 71 8.6 47.6
22:20 1015 29.97 844 24.92 13.7 56.7 70 8.4 47.1
22:25 1015 29.97 844 24.92 13.9 57 68 8.2 46.8
22:30 1015 29.97 844 24.92 14 57.2 68 8.2 46.7
22:35 1015 29.97 844 24.92 14.1 57.3 67 8 46.4
22:40 1015 29.97 844 24.92 14 57.1 67 8 46.4
22:45 1015 29.97 844 24.92 13.6 56.5 68 7.9 46.2
22:50 1015 29.97 844 24.92 13.3 55.9 70 8 46.3
22:55 1015 29.97 844 24.92 13.6 56.6 64 7.1 44.7
23:00 1015 29.97 844 24.92 14.7 58.5 64 7.9 46.3
23:05 1015 29.97 844 24.92 14.2 57.6 67 8.3 47
23:10 1015 29.97 844 24.92 13.5 56.2 69 8 46.4
23:15 1015 29.97 844 24.92 12.8 55 72 7.9 46.2
23:20 1015 29.97 844 24.92 12.7 54.9 70 7.3 45.2
23:25 1015 29.97 844 24.92 12.9 55.2 71 7.7 45.8
23:30 1015 29.97 844 24.92 12.8 55 70 7.5 45.6
23:35 1015 29.97 844 24.92 12.8 55 69 7.4 45.3
23:40 1015 29.97 844 24.92 12.8 55.1 70 7.6 45.6
23:45 1015 29.97 844 24.92 12.6 54.7 71 7.5 45.5
23:50 1015 29.97 844 24.92 12.5 54.4 72 7.5 45.5
23:55 1015 29.97 844 24.92 12.4 54.3 71 7.4 45.3
24:00 1015 29.97 844 24.92 12.2 54 73 7.6 45.7